Terminal Aerodrome Forecast
Issued by NWS Grand Forks, ND

Home | Current Version | Previous Version | Graphics & Text | Print | Product List | Glossary On
Versions: 1 2 3 4 5 6 7 8 9 10 11 12 13 14 15 16 17 18 19
000
FTUS43 KFGF 272334
TAFGFK
TAF
KGFK 272334Z 2800/2824 06006KT P6SM SCT100 BKN250
     FM280900 14007KT P6SM BKN100
     FM281400 18015G22KT P6SM VCSH OVC060
     FM282000 23017G24KT P6SM VCTS BKN050CB=

USA.gov is the U.S. government's official web portal to all federal, state and local government web resources and services.